createdAt,value
2023-05-08T00:03:43.160Z,2.58
2023-05-08T00:13:51.077Z,2.53
2023-05-08T00:23:53.203Z,2.30
2023-05-08T00:33:55.070Z,2.36
2023-05-08T00:43:56.955Z,2.34
2023-05-08T00:54:00.227Z,2.07
2023-05-08T01:04:03.915Z,2.03
2023-05-08T01:15:00.236Z,2.06
2023-05-08T01:25:17.100Z,1.83
2023-05-08T01:35:37.010Z,1.78
2023-05-08T01:45:41.914Z,1.65
2023-05-08T01:55:44.815Z,1.73
2023-05-08T02:05:49.207Z,1.67
2023-05-08T02:15:55.190Z,1.41
2023-05-08T02:25:57.961Z,1.35
2023-05-08T02:36:02.721Z,1.24
2023-05-08T02:46:14.309Z,1.18
2023-05-08T02:56:33.125Z,1.03
2023-05-08T03:06:45.368Z,0.99
2023-05-08T03:16:50.756Z,1.06
2023-05-08T03:26:52.910Z,1.46
2023-05-08T03:36:55.742Z,2.20
2023-05-08T03:46:58.762Z,3.08
2023-05-08T03:57:01.122Z,4.05
2023-05-08T04:07:31.994Z,5.02
2023-05-08T04:17:42.971Z,5.90
2023-05-08T04:27:46.614Z,6.81
2023-05-08T04:37:48.652Z,7.87
2023-05-08T04:47:50.787Z,9.34
2023-05-08T04:57:52.823Z,9.00
2023-05-08T05:07:54.810Z,9.94
2023-05-08T05:17:57.841Z,10.71
2023-05-08T05:28:02.675Z,11.92
2023-05-08T05:38:05.825Z,12.57
2023-05-08T05:48:08.062Z,11.62
2023-05-08T05:58:10.131Z,10.86
2023-05-08T06:08:12.369Z,11.70
2023-05-08T06:18:14.475Z,11.71
2023-05-08T06:28:16.546Z,11.52
2023-05-08T06:38:19.297Z,11.98
2023-05-08T06:48:29.534Z,12.98
2023-05-08T06:58:39.619Z,12.46
2023-05-08T07:08:57.059Z,12.87
2023-05-08T07:19:00.067Z,12.52
2023-05-08T07:29:04.076Z,12.58
2023-05-08T07:39:11.187Z,13.84
2023-05-08T07:49:14.235Z,13.73
2023-05-08T07:59:23.399Z,14.53
2023-05-08T08:09:31.491Z,12.99
2023-05-08T08:19:47.523Z,13.05
2023-05-08T08:30:12.884Z,13.93
2023-05-08T08:40:18.792Z,13.78
2023-05-08T08:50:22.963Z,14.42
2023-05-08T09:00:31.115Z,13.76
2023-05-08T09:10:39.897Z,12.47
2023-05-08T09:20:45.012Z,12.18
2023-05-08T09:30:52.015Z,12.60
2023-05-08T09:41:19.941Z,12.92
2023-05-08T09:51:22.565Z,13.26
2023-05-08T10:01:32.151Z,13.70
2023-05-08T10:11:58.839Z,14.96
2023-05-08T10:22:02.629Z,14.60
2023-05-08T10:32:20.513Z,14.39
2023-05-08T10:42:22.494Z,14.64
2023-05-08T10:52:50.808Z,14.85
2023-05-08T11:02:52.944Z,15.00
2023-05-08T11:12:55.329Z,14.62
2023-05-08T11:23:27.581Z,14.92
2023-05-08T11:33:41.300Z,14.71
2023-05-08T11:43:55.123Z,14.23
2023-05-08T11:54:01.407Z,14.10
2023-05-08T12:04:13.676Z,13.83
2023-05-08T12:14:18.308Z,14.40
2023-05-08T12:24:23.648Z,13.89
2023-05-08T12:34:40.017Z,14.13
2023-05-08T12:44:51.564Z,14.27
2023-05-08T12:54:54.233Z,15.11
2023-05-08T13:04:56.492Z,14.90
2023-05-08T13:15:26.416Z,14.65
2023-05-08T13:25:29.027Z,14.44
2023-05-08T13:35:31.675Z,14.31
2023-05-08T13:45:33.653Z,14.35
2023-05-08T13:55:36.930Z,15.03
2023-05-08T14:05:48.997Z,14.94
2023-05-08T14:15:51.189Z,14.91
2023-05-08T14:25:53.349Z,14.54
2023-05-08T14:36:19.293Z,14.37
2023-05-08T14:46:21.311Z,15.17
2023-05-08T14:56:26.541Z,14.95
2023-05-08T15:06:28.931Z,14.72
2023-05-08T15:16:55.544Z,14.54
2023-05-08T15:26:59.536Z,14.66
2023-05-08T15:37:20.632Z,14.80
2023-05-08T15:47:23.519Z,14.93
2023-05-08T15:57:27.342Z,14.79
2023-05-08T16:07:35.265Z,14.56
2023-05-08T16:18:03.171Z,14.49
2023-05-08T16:28:05.195Z,14.71
2023-05-08T16:38:11.245Z,14.50
2023-05-08T16:48:13.540Z,14.34
2023-05-08T16:58:18.517Z,14.13
2023-05-08T17:08:22.511Z,14.04
2023-05-08T17:18:28.376Z,13.90
2023-05-08T17:28:30.361Z,13.72
2023-05-08T17:38:36.553Z,13.49
2023-05-08T17:48:42.547Z,13.22
2023-05-08T17:58:45.580Z,12.70
2023-05-08T18:08:48.053Z,12.47
2023-05-08T18:18:50.447Z,11.92
2023-05-08T18:28:52.391Z,10.94
2023-05-08T18:39:26.354Z,10.06
2023-05-08T18:49:28.288Z,9.58
2023-05-08T18:59:30.243Z,8.86
2023-05-08T19:09:33.857Z,8.40
2023-05-08T19:19:37.243Z,8.16
2023-05-08T19:29:47.273Z,7.73
2023-05-08T19:39:49.482Z,7.51
2023-05-08T19:49:51.566Z,7.22
2023-05-08T20:00:16.572Z,6.89
2023-05-08T20:10:18.657Z,6.74
2023-05-08T20:20:22.212Z,6.73
2023-05-08T20:30:24.244Z,6.56
2023-05-08T20:40:37.009Z,6.42
2023-05-08T20:50:42.183Z,6.03
2023-05-08T21:00:51.133Z,5.93
2023-05-08T21:11:04.445Z,5.72
2023-05-08T21:21:17.723Z,5.23
2023-05-08T21:31:23.991Z,5.41
2023-05-08T21:41:28.969Z,5.31
2023-05-08T21:51:33.284Z,5.04
2023-05-08T22:01:35.374Z,5.05
2023-05-08T22:11:37.442Z,4.92
2023-05-08T22:21:39.348Z,4.75
2023-05-08T22:31:41.354Z,4.73
2023-05-08T22:41:43.673Z,4.60
2023-05-08T22:51:46.725Z,4.44
2023-05-08T23:01:51.264Z,4.29
2023-05-08T23:12:03.247Z,4.17
2023-05-08T23:22:05.195Z,4.10
2023-05-08T23:32:07.163Z,4.13
2023-05-08T23:42:11.543Z,3.74
2023-05-08T23:52:13.938Z,3.74
